Time;durP1;ratioP1;P1;durP2;ratioP2;P2;SDS_P1;SDS_P2;PMS_P1;PMS_P2;Temp;Humidity;BMP_temperature;BMP_pressure;BME280_temperature;BME280_humidity;BME280_pressure;Samples;Min_cycle;Max_cycle;Signal;HPM_P1;HPM_P2
2021/07/03 00:02:30;;;;;;;69.05;36.35;;;;;;;13.35;100.00;101620.44;5236020;28;20112;-87
2021/07/03 00:05:00;;;;;;;62.70;34.63;;;;;;;13.33;100.00;101618.94;5232274;28;20024;-86
2021/07/03 00:07:31;;;;;;;72.32;36.42;;;;;;;13.30;100.00;101620.09;5232961;28;20383;-87
2021/07/03 00:10:04;;;;;;;72.43;38.30;;;;;;;13.31;100.00;101626.34;5237536;28;20029;-86
2021/07/03 00:12:35;;;;;;;67.15;35.17;;;;;;;13.30;100.00;101613.88;5237490;28;20077;-86
2021/07/03 00:15:09;;;;;;;68.47;35.22;;;;;;;13.31;100.00;101611.03;5245082;28;20070;-87
2021/07/03 00:17:40;;;;;;;67.28;35.83;;;;;;;13.31;100.00;101610.19;5230017;28;20032;-86
2021/07/03 00:20:11;;;;;;;68.97;36.38;;;;;;;13.25;100.00;101613.53;5233362;28;20093;-86
2021/07/03 00:22:42;;;;;;;69.20;35.42;;;;;;;13.24;100.00;101611.84;5228402;28;20025;-87
2021/07/03 00:25:13;;;;;;;72.00;36.10;;;;;;;13.25;100.00;101613.53;5224368;28;20488;-86
2021/07/03 00:27:43;;;;;;;65.25;34.00;;;;;;;13.21;100.00;101611.19;5237566;28;20419;-87
2021/07/03 00:30:14;;;;;;;79.45;41.00;;;;;;;13.23;100.00;101604.78;5235143;28;20016;-86
2021/07/03 00:32:45;;;;;;;64.88;36.30;;;;;;;13.19;100.00;101601.53;5228105;28;20048;-86
2021/07/03 00:35:15;;;;;;;70.28;38.03;;;;;;;13.23;100.00;101604.78;5236788;28;20541;-86
2021/07/03 00:37:46;;;;;;;73.32;39.47;;;;;;;13.25;100.00;101605.44;5224182;28;20025;-86
2021/07/03 00:40:17;;;;;;;69.43;38.92;;;;;;;13.23;100.00;101602.06;5237715;28;20504;-86
2021/07/03 00:42:47;;;;;;;75.15;39.10;;;;;;;13.24;100.00;101603.75;5236345;28;20029;-87
2021/07/03 00:45:18;;;;;;;72.90;38.45;;;;;;;13.27;100.00;101600.75;5225207;28;20101;-86
2021/07/03 00:47:50;;;;;;;68.18;33.80;;;;;;;13.27;100.00;101611.53;5234823;28;20025;-87
2021/07/03 00:50:21;;;;;;;62.80;32.78;;;;;;;13.24;100.00;101604.59;5236657;28;20546;-87
2021/07/03 00:52:52;;;;;;;59.00;33.15;;;;;;;13.23;100.00;101611.00;5239345;28;20040;-88
2021/07/03 00:55:23;;;;;;;72.97;39.22;;;;;;;13.19;100.00;101607.75;5229406;28;20025;-87
2021/07/03 00:57:53;;;;;;;73.72;39.03;;;;;;;13.19;100.00;101607.75;5235044;28;20016;-86
2021/07/03 01:00:24;;;;;;;74.05;39.17;;;;;;;13.16;100.00;101608.09;5234660;28;20023;-86
2021/07/03 01:02:55;;;;;;;74.13;39.97;;;;;;;13.16;100.00;101615.34;5243877;28;20103;-86
2021/07/03 01:05:25;;;;;;;65.70;34.38;;;;;;;13.12;100.00;101609.44;5236221;28;20100;-87
2021/07/03 01:07:56;;;;;;;60.67;34.85;;;;;;;13.10;100.00;101607.91;5223146;28;20052;-87
2021/07/03 01:10:29;;;;;;;67.18;35.58;;;;;;;13.08;100.00;101613.44;5232218;28;20078;-86
2021/07/03 01:12:59;;;;;;;62.08;32.80;;;;;;;13.06;100.00;101609.25;5230147;28;20396;-87
2021/07/03 01:15:30;;;;;;;64.47;35.88;;;;;;;13.06;100.00;101609.25;5233571;28;20021;-86
2021/07/03 01:18:00;;;;;;;64.25;33.67;;;;;;;13.06;100.00;101609.25;5240811;28;20522;-86
2021/07/03 01:20:31;;;;;;;63.35;35.05;;;;;;;13.12;100.00;101611.28;5231707;28;20095;-86
2021/07/03 01:23:02;;;;;;;71.35;39.55;;;;;;;13.13;100.00;101608.41;5228056;28;20025;-87
2021/07/03 01:25:32;;;;;;;61.40;34.83;;;;;;;13.10;100.00;101597.13;5231312;28;20041;-87
2021/07/03 01:28:05;;;;;;;72.00;40.00;;;;;;;13.17;100.00;101607.09;5236258;28;20446;-87
2021/07/03 01:30:37;;;;;;;72.65;38.72;;;;;;;13.23;100.00;101589.44;5235925;28;20451;-86
2021/07/03 01:33:08;;;;;;;84.45;41.13;;;;;;;13.20;100.00;101590.59;5225038;28;20024;-87
2021/07/03 01:35:41;;;;;;;78.15;39.25;;;;;;;13.22;100.00;101593.16;5236312;28;20028;-86
2021/07/03 01:38:19;;;;;;;88.65;41.78;;;;;;;13.25;100.00;101589.28;5232528;28;20033;-86
2021/07/03 01:40:50;;;;;;;83.88;41.85;;;;;;;13.31;100.00;101580.53;5229672;28;20131;-86
2021/07/03 01:43:23;;;;;;;82.35;43.58;;;;;;;13.43;100.00;101573.81;5231328;28;20100;-87
2021/07/03 01:45:56;;;;;;;95.63;45.05;;;;;;;13.47;100.00;101580.56;5235884;28;20052;-86
2021/07/03 01:48:31;;;;;;;86.47;42.22;;;;;;;13.45;100.00;101583.44;5236105;28;20021;-87
2021/07/03 01:51:02;;;;;;;88.78;43.65;;;;;;;13.40;100.00;101583.09;5230147;28;20027;-86
2021/07/03 01:53:33;;;;;;;75.90;40.38;;;;;;;13.37;100.00;101579.88;5242901;28;20028;-87
2021/07/03 01:56:14;;;;;;;77.47;39.70;;;;;;;13.35;100.00;101581.88;5233507;28;20478;-87
2021/07/03 01:58:45;;;;;;;92.15;45.10;;;;;;;13.34;100.00;101583.72;5242865;28;20024;-86
2021/07/03 02:01:17;;;;;;;82.03;42.47;;;;;;;13.35;100.00;101576.47;5229358;28;20112;-86
2021/07/03 02:03:48;;;;;;;89.20;42.97;;;;;;;13.34;100.00;101569.41;5234837;28;20104;-87
2021/07/03 02:06:22;;;;;;;85.88;42.28;;;;;;;13.40;100.00;101572.31;5236039;28;20029;-86
2021/07/03 02:08:52;;;;;;;92.25;43.13;;;;;;;13.54;100.00;101568.06;5231971;28;20028;-86
2021/07/03 02:11:24;;;;;;;92.72;46.72;;;;;;;13.70;100.00;101556.44;5229180;28;20035;-86
2021/07/03 02:13:55;;;;;;;83.35;44.17;;;;;;;13.81;100.00;101556.13;5232157;28;20573;-87
2021/07/03 02:16:25;;;;;;;88.20;43.60;;;;;;;13.79;100.00;101554.59;5235894;28;20112;-86
2021/07/03 02:18:56;;;;;;;84.40;43.10;;;;;;;13.78;100.00;101544.81;5234282;28;20467;-86
2021/07/03 02:21:27;;;;;;;91.13;44.90;;;;;;;13.77;100.00;101554.78;5229220;28;20475;-86
2021/07/03 02:23:59;;;;;;;85.85;41.53;;;;;;;13.84;100.00;101549.53;5229871;28;20017;-87
2021/07/03 02:26:29;;;;;;;96.13;46.97;;;;;;;13.87;100.00;101549.19;5229784;28;20368;-87
2021/07/03 02:29:00;;;;;;;93.00;47.10;;;;;;;13.90;100.00;101548.84;5228103;28;20036;-87
2021/07/03 02:31:31;;;;;;;90.15;43.38;;;;;;;13.92;100.00;101538.75;5232479;28;20032;-87
2021/07/03 02:34:02;;;;;;;85.05;42.50;;;;;;;13.95;100.00;101533.81;5227323;28;20503;-86
2021/07/03 02:36:33;;;;;;;82.43;42.00;;;;;;;14.00;100.00;101536.00;5233024;28;20028;-86
2021/07/03 02:39:05;;;;;;;81.88;41.30;;;;;;;13.98;100.00;101543.44;5226072;28;20029;-86
2021/07/03 02:41:35;;;;;;;77.65;38.67;;;;;;;13.91;100.00;101540.59;5231004;28;20032;-86
2021/07/03 02:44:06;;;;;;;86.20;41.45;;;;;;;13.85;100.00;101540.41;5235265;28;20025;-86
2021/07/03 02:46:36;;;;;;;82.00;42.08;;;;;;;13.84;100.00;101544.13;5228530;28;20499;-86
2021/07/03 02:49:07;;;;;;;85.65;44.00;;;;;;;13.80;100.00;101542.78;5235095;28;20025;-87
2021/07/03 02:51:37;;;;;;;86.63;42.25;;;;;;;13.77;100.00;101545.84;5236271;28;20364;-86
2021/07/03 02:54:08;;;;;;;82.13;43.67;;;;;;;13.72;100.00;101532.88;5241238;28;20036;-86
2021/07/03 02:56:38;;;;;;;85.28;41.72;;;;;;;13.69;100.00;101539.44;5238868;28;20026;-87
2021/07/03 02:59:09;;;;;;;83.70;42.95;;;;;;;13.66;100.00;101536.25;5230603;28;20024;-87
2021/07/03 03:01:39;;;;;;;82.97;40.28;;;;;;;13.61;100.00;101530.53;5243156;28;20048;-86
2021/07/03 03:04:10;;;;;;;76.38;41.22;;;;;;;13.58;100.00;101530.84;5235635;28;20013;-87
2021/07/03 03:06:40;;;;;;;75.90;40.25;;;;;;;13.55;100.00;101528.47;5238962;28;20028;-86
2021/07/03 03:09:11;;;;;;;72.88;34.90;;;;;;;13.55;100.00;101528.47;5237731;28;20023;-86
2021/07/03 03:11:42;;;;;;;75.80;38.10;;;;;;;13.58;100.00;101529.00;5246356;28;20029;-86
2021/07/03 03:14:12;;;;;;;76.47;40.15;;;;;;;13.61;100.00;101525.97;5232665;28;20024;-87
2021/07/03 03:16:43;;;;;;;78.72;40.17;;;;;;;13.63;100.00;101521.25;5233154;28;20471;-86
2021/07/03 03:19:13;;;;;;;77.97;40.72;;;;;;;13.67;100.00;101519.91;5232392;28;20029;-86
2021/07/03 03:21:44;;;;;;;86.93;42.05;;;;;;;13.69;100.00;101517.03;5237580;28;20066;-86
2021/07/03 03:24:14;;;;;;;80.55;39.78;;;;;;;13.69;100.00;101525.94;5227827;28;20021;-86
2021/07/03 03:26:45;;;;;;;79.95;39.97;;;;;;;13.65;100.00;101523.75;5245926;28;20028;-87
2021/07/03 03:29:16;;;;;;;85.20;39.00;;;;;;;13.60;100.00;101523.44;5232127;28;20105;-86
2021/07/03 03:31:46;;;;;;;77.32;38.72;;;;;;;13.58;100.00;101523.59;5234907;28;20017;-86
2021/07/03 03:34:16;;;;;;;77.63;38.80;;;;;;;13.53;100.00;101517.03;5235604;28;20556;-86
2021/07/03 03:36:47;;;;;;;81.32;40.25;;;;;;;13.51;100.00;101519.91;5236916;28;20024;-86
2021/07/03 03:39:17;;;;;;;83.82;40.92;;;;;;;13.54;100.00;101521.41;5226855;28;20465;-86
2021/07/03 03:41:48;;;;;;;82.57;40.13;;;;;;;13.59;100.00;101517.19;5238009;28;20032;-86
2021/07/03 03:44:19;;;;;;;79.97;41.03;;;;;;;13.57;100.00;101530.00;5231936;28;20020;-86
2021/07/03 03:46:52;;;;;;;76.80;39.97;;;;;;;13.58;100.00;101529.00;5244521;28;20078;-86
2021/07/03 03:49:22;;;;;;;82.40;38.70;;;;;;;13.55;100.00;101523.09;5224707;28;20032;-86
2021/07/03 03:51:53;;;;;;;78.70;38.35;;;;;;;13.52;100.00;101521.59;5240598;28;20032;-86
2021/07/03 03:54:23;;;;;;;75.20;38.40;;;;;;;13.45;100.00;101524.13;5238785;28;20381;-87
2021/07/03 03:59:43;;;;;;;84.72;40.72;;;;;;;13.56;100.00;101520.25;5229538;28;20706;-86
2021/07/03 04:02:13;;;;;;;89.55;41.70;;;;;;;13.62;100.00;101522.25;5245568;28;20111;-86
2021/07/03 04:04:44;;;;;;;87.75;40.15;;;;;;;13.60;100.00;101523.44;5230533;28;20017;-86
2021/07/03 04:07:14;;;;;;;80.93;40.17;;;;;;;13.58;100.00;101529.00;5245136;28;20024;-86
2021/07/03 04:09:45;;;;;;;83.55;42.17;;;;;;;13.61;100.00;101528.66;5231454;28;20024;-86
2021/07/03 04:12:16;;;;;;;88.55;43.28;;;;;;;13.64;100.00;101532.88;5234214;28;20040;-86
2021/07/03 04:14:46;;;;;;;90.75;41.78;;;;;;;13.72;100.00;101524.78;5224451;28;20025;-86
2021/07/03 04:17:17;;;;;;;93.50;42.97;;;;;;;13.88;100.00;101523.91;5236862;28;20372;-86
2021/07/03 04:19:48;;;;;;;84.95;41.58;;;;;;;13.98;100.00;101522.69;5230746;28;20036;-86
2021/07/03 04:22:18;;;;;;;87.75;41.78;;;;;;;14.00;100.00;101525.22;5227054;28;20035;-86
2021/07/03 04:24:49;;;;;;;80.90;40.13;;;;;;;14.09;100.00;101523.34;5245003;28;20400;-86
2021/07/03 04:27:19;;;;;;;76.20;36.75;;;;;;;14.19;100.00;101527.53;5244884;28;20035;-86
2021/07/03 04:29:50;;;;;;;68.95;36.65;;;;;;;14.33;100.00;101533.22;5244491;28;20029;-86
2021/07/03 04:32:20;;;;;;;68.07;35.90;;;;;;;14.54;100.00;101532.66;5244219;28;20029;-86
2021/07/03 04:34:51;;;;;;;71.60;35.95;;;;;;;14.67;100.00;101536.50;5225011;28;20029;-86
2021/07/03 04:37:21;;;;;;;64.22;35.22;;;;;;;14.83;100.00;101530.16;5241651;28;20032;-86
2021/07/03 04:39:52;;;;;;;60.17;33.33;;;;;;;15.00;100.00;101525.50;5244257;28;20024;-86
2021/07/03 04:42:22;;;;;;;63.55;32.22;;;;;;;15.08;100.00;101525.44;5244414;28;20025;-86
2021/07/03 04:44:53;;;;;;;58.78;31.88;;;;;;;15.23;100.00;101526.34;5244253;28;20024;-86
2021/07/03 04:47:23;;;;;;;62.38;32.95;;;;;;;15.42;100.00;101524.19;5244210;28;20063;-86
2021/07/03 04:49:54;;;;;;;56.20;30.25;;;;;;;15.53;100.00;101515.66;5243810;28;20027;-86
2021/07/03 04:52:26;;;;;;;55.95;29.67;;;;;;;15.84;100.00;101512.00;5236383;28;20513;-87
2021/07/03 04:54:58;;;;;;;55.10;28.88;;;;;;;16.06;100.00;101511.06;5227716;28;20033;-86
2021/07/03 04:57:28;;;;;;;51.20;27.75;;;;;;;16.19;100.00;101497.75;5232852;28;20555;-86
2021/07/03 04:59:59;;;;;;;43.47;25.48;;;;;;;16.47;100.00;101507.91;5230135;28;20142;-86
2021/07/03 05:02:29;;;;;;;42.47;25.48;;;;;;;16.72;100.00;101501.16;5243905;28;20519;-86
2021/07/03 05:05:01;;;;;;;43.85;23.20;;;;;;;16.96;100.00;101507.25;5239675;28;20141;-88
2021/07/03 05:07:31;;;;;;;42.50;23.00;;;;;;;17.13;100.00;101511.41;5243131;28;20577;-87
2021/07/03 05:10:02;;;;;;;40.53;22.02;;;;;;;17.12;100.00;101512.44;5230371;28;20075;-87
2021/07/03 05:12:33;;;;;;;34.15;21.15;;;;;;;17.39;100.00;101513.50;5243596;28;20032;-86
2021/07/03 05:15:04;;;;;;;31.05;19.23;;;;;;;17.64;100.00;101503.09;5231424;28;20143;-87
2021/07/03 05:17:35;;;;;;;37.25;19.48;;;;;;;17.53;100.00;101509.88;5242637;28;20111;-87
2021/07/03 05:20:07;;;;;;;34.05;19.48;;;;;;;17.80;100.00;101505.53;5223709;28;20401;-87
2021/07/03 05:22:38;;;;;;;34.83;19.27;;;;;;;17.80;100.00;101510.13;5225997;28;20029;-87
2021/07/03 05:25:09;;;;;;;33.10;18.40;;;;;;;18.02;100.00;101510.88;5244088;28;20020;-86
2021/07/03 05:27:39;;;;;;;32.10;17.50;;;;;;;18.20;100.00;101516.66;5239503;28;20488;-87
2021/07/03 05:30:11;;;;;;;32.58;17.77;;;;;;;18.11;100.00;101512.41;5222853;28;20083;-86
2021/07/03 05:32:41;;;;;;;28.65;15.63;;;;;;;18.42;100.00;101508.38;5237964;28;20119;-86
2021/07/03 05:35:13;;;;;;;30.63;16.13;;;;;;;18.58;100.00;101508.06;5236810;28;20108;-87
2021/07/03 05:37:44;;;;;;;25.77;15.65;;;;;;;18.67;100.00;101511.41;5236195;28;20029;-87
2021/07/03 05:40:16;;;;;;;31.92;16.05;;;;;;;18.61;100.00;101511.19;5236555;28;20025;-86
2021/07/03 05:42:47;;;;;;;29.67;16.25;;;;;;;18.40;100.00;101505.06;5230952;28;20663;-85
2021/07/03 05:45:17;;;;;;;26.98;15.25;;;;;;;18.30;100.00;101500.81;5229768;28;20067;-86
2021/07/03 05:47:52;;;;;;;26.60;15.10;;;;;;;18.34;100.00;101495.84;5233953;28;20021;-86
2021/07/03 05:50:25;;;;;;;27.10;15.02;;;;;;;18.23;100.00;101496.41;5227836;28;20533;-87
2021/07/03 05:52:56;;;;;;;25.63;14.18;;;;;;;18.24;100.00;101482.63;5238277;28;20024;-85
2021/07/03 05:55:26;;;;;;;23.00;15.00;;;;;;;18.09;100.00;101488.19;5243086;28;20020;-85
2021/07/03 05:57:57;;;;;;;31.58;15.20;;;;;;;17.93;100.00;101483.06;5243060;28;20031;-85
2021/07/03 06:00:27;;;;;;;26.33;15.25;;;;;;;17.97;100.00;101486.22;5243048;28;20052;-85
2021/07/03 06:02:58;;;;;;;21.88;14.00;;;;;;;17.97;100.00;101487.06;5241984;28;20035;-85
2021/07/03 06:05:28;;;;;;;24.00;13.52;;;;;;;18.05;100.00;101476.03;5223091;28;20017;-85
2021/07/03 06:07:58;;;;;;;26.63;14.35;;;;;;;18.14;100.00;101478.59;5229031;28;20396;-85
2021/07/03 06:10:29;;;;;;;22.70;13.52;;;;;;;18.22;100.00;101471.09;5232017;28;20024;-85
2021/07/03 06:13:00;;;;;;;24.92;12.55;;;;;;;18.26;100.00;101469.66;5242938;28;20107;-85
2021/07/03 06:15:30;;;;;;;22.67;14.07;;;;;;;18.23;100.00;101477.41;5243371;28;20089;-85
2021/07/03 06:18:02;;;;;;;28.92;14.23;;;;;;;18.20;100.00;101473.19;5237912;28;20104;-85
2021/07/03 06:20:33;;;;;;;23.30;12.20;;;;;;;18.30;100.00;101472.81;5234386;28;20508;-85
2021/07/03 06:23:04;;;;;;;23.05;13.30;;;;;;;18.17;100.00;101472.75;5242593;28;20657;-85
2021/07/03 06:25:34;;;;;;;22.85;11.88;;;;;;;18.26;100.00;101471.53;5241036;28;20111;-84
2021/07/03 06:28:05;;;;;;;21.27;12.00;;;;;;;18.25;100.00;101475.31;5237148;28;20035;-85
2021/07/03 06:30:36;;;;;;;22.20;13.70;;;;;;;18.29;100.00;101480.13;5246021;28;20032;-85
2021/07/03 06:33:07;;;;;;;18.35;11.98;;;;;;;18.29;100.00;101473.88;5240978;28;20476;-85
2021/07/03 06:35:38;;;;;;;27.85;13.75;;;;;;;18.25;100.00;101476.16;5232774;28;20430;-85
2021/07/03 06:38:08;;;;;;;21.80;11.90;;;;;;;18.23;100.00;101474.69;5246199;28;20024;-85
2021/07/03 06:40:39;;;;;;;20.58;12.32;;;;;;;18.26;100.00;101479.69;5247580;28;20048;-84
2021/07/03 06:43:10;;;;;;;21.52;12.15;;;;;;;18.27;100.00;101484.06;5246514;28;20180;-84
2021/07/03 06:45:41;;;;;;;23.50;13.13;;;;;;;18.28;100.00;101472.19;5223788;28;20032;-84
2021/07/03 06:48:11;;;;;;;21.98;12.40;;;;;;;18.30;100.00;101483.69;5227851;28;20029;-86
2021/07/03 06:50:42;;;;;;;19.60;11.85;;;;;;;18.25;100.00;101472.59;5237477;28;20534;-86
2021/07/03 06:53:12;;;;;;;22.27;11.82;;;;;;;18.27;100.00;101474.09;5243279;28;20028;-85
2021/07/03 06:55:43;;;;;;;22.95;12.95;;;;;;;18.31;100.00;101475.31;5228099;28;20029;-83
2021/07/03 06:58:13;;;;;;;22.92;12.48;;;;;;;18.34;100.00;101468.66;5230216;28;20036;-84
2021/07/03 07:00:44;;;;;;;22.75;10.30;;;;;;;18.31;100.00;101471.78;5240984;28;20483;-85
2021/07/03 07:03:14;;;;;;;19.42;10.77;;;;;;;18.34;100.00;101474.94;5247806;28;20471;-84
2021/07/03 07:05:45;;;;;;;17.33;10.50;;;;;;;18.35;100.00;101467.63;5223853;28;20017;-85
2021/07/03 07:08:15;;;;;;;20.00;10.93;;;;;;;18.31;100.00;101471.78;5242496;28;20028;-85
2021/07/03 07:10:46;;;;;;;18.23;12.48;;;;;;;18.33;100.00;101481.41;5244448;28;20029;-84
2021/07/03 07:13:16;;;;;;;19.98;11.52;;;;;;;18.41;100.00;101477.66;5244933;28;20017;-84
2021/07/03 07:15:47;;;;;;;19.23;10.75;;;;;;;18.43;100.00;101477.50;5244876;28;20024;-85
2021/07/03 07:18:18;;;;;;;23.13;11.02;;;;;;;18.41;100.00;101471.41;5225289;28;20025;-85
2021/07/03 07:20:49;;;;;;;17.70;11.00;;;;;;;18.37;100.00;101479.09;5238360;28;20099;-84
2021/07/03 07:23:19;;;;;;;20.70;11.25;;;;;;;18.40;100.00;101475.16;5244795;28;20055;-84
2021/07/03 07:25:50;;;;;;;18.70;11.32;;;;;;;18.43;100.00;101477.50;5245422;28;20130;-84
2021/07/03 07:28:21;;;;;;;23.98;10.43;;;;;;;18.45;100.00;101478.94;5245637;28;20107;-84
2021/07/03 07:30:51;;;;;;;18.13;11.07;;;;;;;18.42;100.00;101479.34;5240623;28;20104;-84
2021/07/03 07:33:22;;;;;;;15.05;9.93;;;;;;;18.44;100.00;101479.16;5213201;28;20480;-84
2021/07/03 07:35:52;;;;;;;22.02;10.80;;;;;;;18.43;100.00;101478.31;5228152;28;20039;-84
2021/07/03 07:38:23;;;;;;;17.95;10.65;;;;;;;18.50;100.00;101494.66;5244889;28;20027;-84
2021/07/03 07:40:55;;;;;;;20.58;11.88;;;;;;;18.55;100.00;101484.00;5244703;28;20438;-84
2021/07/03 07:43:25;;;;;;;18.35;9.82;;;;;;;18.68;100.00;101478.66;5226408;28;20024;-84
2021/07/03 07:45:59;;;;;;;21.48;10.93;;;;;;;18.74;100.00;101474.28;5209258;28;20041;-84
2021/07/03 07:48:33;;;;;;;17.50;10.23;;;;;;;18.80;100.00;101477.00;5225723;28;20445;-84
2021/07/03 07:51:03;;;;;;;18.55;10.25;;;;;;;18.84;100.00;101477.44;5243725;28;20479;-84
2021/07/03 07:53:34;;;;;;;20.10;10.57;;;;;;;18.87;100.00;101483.28;5227346;28;20023;-84
2021/07/03 07:56:05;;;;;;;20.30;10.18;;;;;;;18.89;100.00;101489.38;5234618;28;20073;-84
2021/07/03 07:58:36;;;;;;;13.95;8.90;;;;;;;18.96;100.00;101478.50;5243745;28;20541;-86
2021/07/03 08:01:06;;;;;;;16.80;9.70;;;;;;;19.05;100.00;101473.72;5235611;28;20021;-86
2021/07/03 08:03:37;;;;;;;19.63;9.85;;;;;;;18.97;100.00;101472.00;5237591;28;20024;-86
2021/07/03 08:06:09;;;;;;;18.27;9.85;;;;;;;18.98;100.00;101475.59;5223505;28;20048;-87
2021/07/03 08:08:41;;;;;;;19.15;11.10;;;;;;;18.93;100.00;101481.66;5218090;28;20572;-86
2021/07/03 08:11:12;;;;;;;16.38;10.15;;;;;;;18.89;100.00;101472.22;5222893;28;20037;-86
2021/07/03 08:13:42;;;;;;;17.23;10.82;;;;;;;18.85;100.00;101479.94;5233012;28;20024;-86
2021/07/03 08:16:14;;;;;;;18.00;10.32;;;;;;;18.86;100.00;101478.06;5243920;28;20138;-86
2021/07/03 08:18:45;;;;;;;17.13;9.00;;;;;;;18.87;100.00;101472.41;5232940;28;20029;-86
2021/07/03 08:21:17;;;;;;;15.30;9.98;;;;;;;18.80;100.00;101479.72;5227513;28;20031;-86
2021/07/03 08:23:47;;;;;;;17.95;10.93;;;;;;;18.70;100.00;101479.28;5243839;28;20153;-86
2021/07/03 08:26:18;;;;;;;24.67;10.05;;;;;;;18.74;100.00;101479.72;5237386;28;20638;-86
2021/07/03 08:28:49;;;;;;;20.23;10.25;;;;;;;18.75;100.00;101470.50;5223574;28;20048;-86
2021/07/03 08:31:20;;;;;;;21.33;11.07;;;;;;;18.76;100.00;101470.28;5243327;28;20020;-85
2021/07/03 08:33:50;;;;;;;18.08;10.32;;;;;;;18.88;100.00;101471.38;5233149;28;20028;-86
2021/07/03 08:36:21;;;;;;;20.20;10.07;;;;;;;18.91;100.00;101474.72;5243450;28;20031;-86
2021/07/03 08:38:52;;;;;;;18.60;9.10;;;;;;;19.01;100.00;101469.72;5243584;28;20028;-86
2021/07/03 08:41:24;;;;;;;15.38;9.10;;;;;;;19.12;100.00;101472.66;5233169;28;20096;-86
2021/07/03 08:43:55;;;;;;;12.50;8.90;;;;;;;19.13;100.00;101462.66;5237945;28;20139;-86
2021/07/03 08:46:26;;;;;;;16.42;9.23;;;;;;;19.15;100.00;101463.25;5233854;28;20035;-85
2021/07/03 08:48:58;;;;;;;17.65;9.90;;;;;;;19.24;100.00;101461.19;5237941;28;20025;-86
2021/07/03 08:51:29;;;;;;;16.48;10.15;;;;;;;19.30;100.00;101457.63;5234439;28;20022;-85
2021/07/03 08:54:01;;;;;;;21.80;9.73;;;;;;;19.31;100.00;101465.56;5243006;28;20480;-86
2021/07/03 08:56:32;;;;;;;15.60;9.93;;;;;;;19.41;100.00;101466.00;5242973;28;20021;-86
2021/07/03 08:59:14;;;;;;;13.98;9.13;;;;;;;19.49;100.00;101473.13;5237509;28;20513;-85
2021/07/03 09:01:55;;;;;;;20.15;10.38;;;;;;;19.53;100.00;101476.22;5222403;28;20024;-86
2021/07/03 09:04:37;;;;;;;15.70;9.57;;;;;;;19.61;100.00;101471.44;5242505;28;20028;-86
2021/07/03 09:07:11;;;;;;;18.95;10.43;;;;;;;19.67;100.00;101472.50;5231248;28;20025;-86
2021/07/03 09:09:42;;;;;;;16.63;10.30;;;;;;;19.92;100.00;101468.03;5242759;28;20093;-86
2021/07/03 09:12:12;;;;;;;16.50;9.35;;;;;;;19.94;100.00;101470.59;5232079;28;20028;-86
2021/07/03 09:14:43;;;;;;;15.13;9.93;;;;;;;20.15;100.00;101469.47;5226404;28;20592;-87
2021/07/03 09:17:14;;;;;;;15.98;9.32;;;;;;;20.47;100.00;101461.41;5242988;28;20024;-87
2021/07/03 09:19:50;;;;;;;13.27;9.15;;;;;;;20.72;100.00;101465.03;5242221;28;20027;-86
2021/07/03 09:22:21;;;;;;;13.52;8.98;;;;;;;21.03;100.00;101466.09;5242932;28;20475;-86
2021/07/03 09:24:52;;;;;;;13.65;9.32;;;;;;;21.19;100.00;101457.41;5242773;28;20028;-87
2021/07/03 09:27:23;;;;;;;16.17;10.07;;;;;;;21.23;100.00;101457.78;5229118;28;20115;-86
2021/07/03 09:29:55;;;;;;;17.05;9.70;;;;;;;21.55;100.00;101459.44;5242377;28;20016;-85
2021/07/03 09:32:27;;;;;;;14.45;8.90;;;;;;;21.49;100.00;101456.75;5224303;28;20513;-86
2021/07/03 09:34:58;;;;;;;13.57;8.77;;;;;;;21.63;100.00;101456.41;5222003;28;20654;-86
2021/07/03 09:37:28;;;;;;;13.27;8.38;;;;;;;21.87;100.00;101449.25;5239710;28;20020;-86
2021/07/03 09:40:07;;;;;;;14.20;8.20;;;;;;;22.13;100.00;101447.28;5230615;28;20511;-86
2021/07/03 09:42:39;;;;;;;13.23;7.60;;;;;;;22.36;100.00;101443.88;5241467;28;20115;-86
2021/07/03 09:45:11;;;;;;;11.88;7.10;;;;;;;22.43;100.00;101439.97;5241520;28;20475;-86
2021/07/03 09:47:41;;;;;;;11.00;7.60;;;;;;;22.65;100.00;101440.31;5221982;28;20029;-86
2021/07/03 09:50:13;;;;;;;12.30;7.22;;;;;;;23.14;100.00;101427.38;5223776;28;20120;-86
2021/07/03 09:52:44;;;;;;;9.18;6.93;;;;;;;23.08;100.00;101432.97;5227395;28;20028;-87
2021/07/03 09:55:15;;;;;;;14.30;6.88;;;;;;;22.96;100.00;101430.22;5219572;28;20020;-86
2021/07/03 09:57:46;;;;;;;10.45;7.28;;;;;;;23.16;100.00;101435.38;5242517;28;20467;-86
2021/07/03 10:00:17;;;;;;;13.25;7.45;;;;;;;23.24;100.00;101426.81;5233714;28;20039;-86
2021/07/03 10:02:49;;;;;;;8.73;6.68;;;;;;;23.65;100.00;101425.09;5228046;28;20047;-86
2021/07/03 10:05:22;;;;;;;9.18;6.38;;;;;;;23.85;100.00;101414.59;5234713;28;20048;-85
2021/07/03 10:08:04;;;;;;;9.05;6.75;;;;;;;24.09;100.00;101418.09;5236031;28;20028;-85
2021/07/03 10:10:37;;;;;;;11.82;7.10;;;;;;;24.51;100.00;101421.44;5231191;28;20036;-85
2021/07/03 10:13:17;;;;;;;10.20;6.65;;;;;;;24.85;100.00;101426.16;5225928;28;20379;-85
2021/07/03 10:15:47;;;;;;;11.75;6.35;;;;;;;25.11;100.00;101427.50;5241832;28;20106;-84
2021/07/03 10:18:22;;;;;;;10.65;6.75;;;;;;;24.64;100.00;101433.19;5229177;28;20032;-85
2021/07/03 10:20:54;;;;;;;13.20;7.13;;;;;;;24.37;100.00;101430.22;5241247;28;20530;-84
2021/07/03 10:23:34;;;;;;;10.65;6.80;;;;;;;24.33;100.00;101427.09;5230789;28;20028;-84
2021/07/03 10:26:05;;;;;;;9.93;6.38;;;;;;;24.17;100.00;101417.72;5236887;28;20025;-84
2021/07/03 10:28:38;;;;;;;10.25;6.57;;;;;;;24.12;100.00;101411.31;5232332;28;20020;-84
2021/07/03 10:31:10;;;;;;;10.15;7.05;;;;;;;24.35;100.00;101403.00;5222143;28;20029;-84
2021/07/03 10:33:41;;;;;;;9.57;6.50;;;;;;;24.04;100.00;101407.84;5224332;28;20592;-84
2021/07/03 10:36:28;;;;;;;9.00;6.32;;;;;;;23.77;100.00;101403.97;5228582;28;20029;-84
2021/07/03 10:39:01;;;;;;;9.35;6.28;;;;;;;23.92;100.00;101406.22;5238603;28;20025;-84
2021/07/03 10:41:34;;;;;;;8.90;6.28;;;;;;;23.78;100.00;101403.72;5210470;28;20420;-84
2021/07/03 10:44:10;;;;;;;13.93;6.97;;;;;;;23.60;100.00;101405.78;5218169;28;20039;-84
2021/07/03 10:46:43;;;;;;;8.63;6.10;;;;;;;23.61;100.00;101391.00;5234877;28;20032;-84
2021/07/03 10:49:19;;;;;;;10.13;6.53;;;;;;;23.58;100.00;101394.19;5228134;28;20021;-84
2021/07/03 10:51:51;;;;;;;11.35;6.55;;;;;;;23.56;100.00;101393.63;5241880;28;20546;-83
2021/07/03 10:54:24;;;;;;;14.60;7.20;;;;;;;23.70;100.00;101392.34;5236465;28;20021;-84
2021/07/03 10:57:01;;;;;;;10.07;6.88;;;;;;;23.71;100.00;101388.53;5235715;28;20033;-83
2021/07/03 10:59:34;;;;;;;9.30;6.38;;;;;;;23.80;100.00;101381.59;5233221;28;20082;-83
2021/07/03 11:02:09;;;;;;;13.45;6.45;;;;;;;24.04;100.00;101391.41;5226730;28;20869;-84
2021/07/03 11:04:54;;;;;;;12.88;6.78;;;;;;;23.90;100.00;101383.72;5227662;28;20422;-84
2021/07/03 11:07:30;;;;;;;12.43;6.13;;;;;;;24.07;100.00;101378.31;5241146;28;20082;-84
2021/07/03 11:10:24;;;;;;;13.20;6.25;;;;;;;23.97;100.00;101381.66;5241232;28;20070;-85
2021/07/03 11:12:59;;;;;;;10.43;6.40;;;;;;;23.89;100.00;101391.09;5240914;28;20036;-84
2021/07/03 11:15:30;;;;;;;10.55;6.38;;;;;;;24.02;100.00;101398.22;5244468;28;20035;-84
2021/07/03 11:18:01;;;;;;;10.10;6.65;;;;;;;24.13;100.00;101388.28;5244942;28;20032;-84
2021/07/03 11:20:36;;;;;;;11.75;6.38;;;;;;;24.37;100.00;101394.56;5244316;28;20081;-84
2021/07/03 11:23:13;;;;;;;10.15;6.78;;;;;;;24.09;100.00;101396.16;5242441;28;20025;-85
2021/07/03 11:25:45;;;;;;;9.32;6.40;;;;;;;24.03;100.00;101387.00;5206188;28;20031;-84
2021/07/03 11:28:19;;;;;;;9.85;6.20;;;;;;;24.28;100.00;101391.34;5226653;28;20031;-85